createdAt,value
2022-11-25T13:16:09.850Z,11.30
2022-11-25T13:18:42.318Z,11.00
2022-11-25T13:21:14.024Z,10.90
2022-11-25T13:23:49.343Z,11.00
2022-11-25T13:26:29.022Z,11.00
2022-11-25T13:28:57.399Z,10.90
2022-11-25T13:31:31.850Z,10.90
2022-11-25T13:33:58.613Z,10.90
2022-11-25T13:36:43.948Z,10.90
2022-11-25T13:39:28.770Z,10.80
2022-11-25T13:42:16.711Z,10.80
2022-11-25T13:44:53.914Z,10.70
2022-11-25T13:47:42.849Z,10.70
2022-11-25T13:50:20.468Z,10.70
2022-11-25T13:53:03.224Z,10.70
2022-11-25T13:55:40.395Z,10.60
2022-11-25T13:58:10.221Z,10.60
2022-11-25T14:00:36.918Z,10.60
2022-11-25T14:03:19.895Z,10.50
2022-11-25T14:06:18.378Z,10.50
2022-11-25T14:09:05.004Z,10.50
2022-11-25T14:12:04.590Z,10.40
2022-11-25T14:15:02.360Z,10.40
2022-11-25T14:17:56.108Z,10.30
2022-11-25T14:20:28.451Z,10.30
2022-11-25T14:23:35.650Z,10.20
2022-11-25T14:26:27.053Z,10.20
2022-11-25T14:29:05.207Z,10.10
2022-11-25T14:31:53.560Z,10.10
2022-11-25T14:34:24.555Z,10.00
2022-11-25T14:37:00.734Z,10.00
2022-11-25T14:39:58.311Z,9.90
2022-11-25T14:42:35.403Z,9.90
2022-11-25T14:45:03.222Z,9.80
2022-11-25T14:47:39.163Z,9.80
2022-11-25T14:53:10.018Z,9.80
2022-11-25T14:55:38.274Z,9.70
2022-11-25T14:58:05.186Z,9.70
2022-11-25T15:00:32.020Z,9.70
2022-11-25T15:03:06.404Z,9.60
2022-11-25T15:05:39.041Z,9.60
2022-11-25T15:08:17.885Z,9.60
2022-11-25T15:11:00.431Z,9.60
2022-11-25T15:13:41.324Z,9.60
2022-11-25T15:16:16.809Z,9.50
2022-11-25T15:18:58.829Z,9.50
2022-11-25T15:22:07.036Z,9.50
2022-11-25T15:24:33.366Z,9.50
2022-11-25T15:27:02.824Z,9.40
2022-11-25T15:29:31.405Z,9.40
2022-11-25T15:32:00.104Z,9.40
2022-11-25T15:34:29.785Z,9.40
2022-11-25T15:37:01.042Z,9.30
2022-11-25T15:39:27.995Z,9.30
2022-11-25T15:42:24.652Z,9.30
2022-11-25T15:45:05.300Z,9.30
2022-11-25T15:47:36.783Z,9.30
2022-11-25T15:50:20.524Z,9.30
2022-11-25T15:52:56.542Z,9.20
2022-11-25T15:55:38.894Z,9.20
2022-11-25T15:58:21.116Z,9.20
2022-11-25T16:01:20.015Z,9.20
2022-11-25T16:03:48.119Z,9.20
2022-11-25T16:06:28.637Z,9.10
2022-11-25T16:09:01.698Z,9.10
2022-11-25T16:11:35.670Z,9.10
2022-11-25T16:14:28.970Z,9.10
2022-11-25T16:17:07.677Z,9.00
2022-11-25T16:19:41.547Z,9.00
2022-11-25T16:22:18.861Z,9.00
2022-11-25T16:25:01.748Z,8.90
2022-11-25T16:27:29.939Z,8.90
2022-11-25T16:30:05.705Z,8.90
2022-11-25T16:32:34.307Z,8.90
2022-11-25T16:35:16.724Z,8.90
2022-11-25T16:37:48.754Z,8.80
2022-11-25T16:40:18.475Z,8.90
2022-11-25T16:42:50.161Z,8.80
2022-11-25T16:45:36.588Z,8.90
2022-11-25T16:48:21.058Z,8.90
2022-11-25T16:50:48.919Z,8.90
2022-11-25T16:53:15.871Z,8.90
2022-11-25T16:55:45.433Z,8.90
2022-11-25T16:58:32.563Z,8.90
2022-11-25T17:00:59.350Z,8.90
2022-11-25T17:03:26.694Z,8.90
2022-11-25T17:05:55.112Z,8.90
2022-11-25T17:08:22.381Z,8.90
2022-11-25T17:10:49.819Z,8.90
2022-11-25T17:13:24.055Z,8.90
2022-11-25T17:15:51.007Z,8.80
2022-11-25T17:18:19.184Z,8.80
2022-11-25T17:20:46.861Z,8.80
2022-11-25T17:23:17.005Z,8.80
2022-11-25T17:25:48.684Z,8.80
2022-11-25T17:28:20.685Z,8.80
2022-11-25T17:30:48.503Z,8.80
2022-11-25T17:33:18.756Z,8.70
2022-11-25T17:35:48.434Z,8.70
2022-11-25T17:38:20.814Z,8.70
2022-11-25T17:40:51.212Z,8.70
2022-11-25T17:43:20.116Z,8.70
2022-11-25T17:45:47.594Z,8.70
2022-11-25T17:48:18.275Z,8.70
2022-11-25T17:50:46.830Z,8.60
2022-11-25T17:53:13.681Z,8.60
2022-11-25T17:55:41.783Z,8.60
2022-11-25T17:58:10.570Z,8.60
2022-11-25T18:00:39.632Z,8.60
2022-11-25T18:03:14.228Z,8.60
2022-11-25T18:05:41.233Z,8.60
2022-11-25T18:08:08.440Z,8.60
2022-11-25T18:10:35.474Z,8.60
2022-11-25T18:13:02.942Z,8.60
2022-11-25T18:15:33.959Z,8.50
2022-11-25T18:18:11.209Z,8.50
2022-11-25T18:20:38.013Z,8.50
2022-11-25T18:23:09.550Z,8.50
2022-11-25T18:25:36.468Z,8.50
2022-11-25T18:28:04.567Z,8.50
2022-11-25T18:30:34.540Z,8.50
2022-11-25T18:33:02.179Z,8.50
2022-11-25T18:35:36.657Z,8.50
2022-11-25T18:38:04.667Z,8.50
2022-11-25T18:40:32.233Z,8.50
2022-11-25T18:43:02.523Z,8.40
2022-11-25T18:45:34.237Z,8.50
2022-11-25T18:48:01.097Z,8.50
2022-11-25T18:50:28.431Z,8.50
2022-11-25T18:52:55.281Z,8.50
2022-11-25T18:55:23.485Z,8.50
2022-11-25T18:57:52.059Z,8.50
2022-11-25T19:00:33.032Z,8.50
2022-11-25T19:03:00.378Z,8.50
2022-11-25T19:05:32.087Z,8.50
2022-11-25T19:07:58.983Z,8.60
2022-11-25T19:10:31.216Z,8.60
2022-11-25T19:13:01.858Z,8.60
2022-11-25T19:15:28.831Z,8.60
2022-11-25T19:18:01.810Z,8.60
2022-11-25T19:20:30.085Z,8.60
2022-11-25T19:23:00.830Z,8.60
2022-11-25T19:25:28.446Z,8.60
2022-11-25T19:27:58.818Z,8.60
2022-11-25T19:30:31.136Z,8.60
2022-11-25T19:33:01.323Z,8.60
2022-11-25T19:35:37.990Z,8.50
2022-11-25T19:38:25.185Z,8.60
2022-11-25T19:40:53.906Z,8.60
2022-11-25T19:43:22.600Z,8.60
2022-11-25T19:45:50.374Z,8.60
2022-11-25T19:48:19.618Z,8.60
2022-11-25T19:50:49.302Z,8.60
2022-11-25T19:53:21.410Z,8.60
2022-11-25T19:55:48.813Z,8.60
2022-11-25T19:58:15.769Z,8.70
2022-11-25T20:00:44.164Z,8.70
2022-11-25T20:03:31.610Z,8.70
2022-11-25T20:05:58.933Z,8.70
2022-11-25T20:08:28.772Z,8.70
2022-11-25T20:10:56.750Z,8.60
2022-11-25T20:13:25.821Z,8.60
2022-11-25T20:15:53.771Z,8.60
2022-11-25T20:18:23.924Z,8.60
2022-11-25T20:21:01.496Z,8.50
2022-11-25T20:23:43.929Z,8.50
2022-11-25T20:26:37.698Z,8.50
2022-11-25T20:29:23.595Z,8.50
2022-11-25T20:31:56.008Z,8.50
2022-11-25T20:34:22.914Z,8.50
2022-11-25T20:36:49.801Z,8.50
2022-11-25T20:39:19.309Z,8.50
2022-11-25T20:41:52.965Z,8.50
2022-11-25T20:44:20.803Z,8.50
2022-11-25T20:46:48.086Z,8.50
2022-11-25T20:49:28.224Z,8.50
2022-11-25T20:51:56.739Z,8.50
2022-11-25T20:54:26.158Z,8.50
2022-11-25T20:56:53.026Z,8.50
2022-11-25T20:59:23.544Z,8.50
2022-11-25T21:01:51.457Z,8.60
2022-11-25T21:04:18.456Z,8.60
2022-11-25T21:06:45.507Z,8.60
2022-11-25T21:09:19.543Z,8.60
2022-11-25T21:11:48.057Z,8.60
2022-11-25T21:14:18.114Z,8.60
2022-11-25T21:16:46.090Z,8.60
2022-11-25T21:19:13.035Z,8.60
2022-11-25T21:21:44.361Z,8.60
2022-11-25T21:24:22.992Z,8.60
2022-11-25T21:26:50.581Z,8.60
2022-11-25T21:31:45.630Z,8.60
2022-11-25T21:34:13.793Z,8.60
2022-11-25T21:36:43.052Z,8.60
2022-11-25T21:39:30.273Z,8.60
2022-11-25T21:42:02.615Z,8.60
2022-11-25T21:44:39.843Z,8.60
2022-11-25T21:47:15.446Z,8.60
2022-11-25T21:49:42.738Z,8.60
2022-11-25T21:52:10.296Z,8.70
2022-11-25T21:54:37.233Z,8.70
2022-11-25T21:57:04.473Z,8.70
2022-11-25T21:59:32.151Z,8.70
2022-11-25T22:01:58.993Z,8.70
2022-11-25T22:04:25.887Z,8.70
2022-11-25T22:06:54.080Z,8.70
2022-11-25T22:09:20.939Z,8.80
2022-11-25T22:11:50.473Z,8.80
2022-11-25T22:14:34.495Z,8.80
2022-11-25T22:17:05.168Z,8.80
2022-11-25T22:19:32.878Z,8.90
2022-11-25T22:21:59.847Z,8.90
2022-11-25T22:24:26.840Z,8.90
2022-11-25T22:26:57.713Z,8.90
2022-11-25T22:29:31.673Z,8.90
2022-11-25T22:31:58.570Z,8.90
2022-11-25T22:34:25.584Z,8.90
2022-11-25T22:36:52.577Z,8.90
2022-11-25T22:39:25.398Z,8.90
2022-11-25T22:42:02.810Z,8.90
2022-11-25T22:44:40.177Z,8.90
2022-11-25T22:47:07.794Z,8.90
2022-11-25T22:49:45.338Z,9.00
2022-11-25T22:52:25.428Z,9.00
2022-11-25T22:54:52.572Z,9.00
2022-11-25T22:57:19.784Z,9.00
2022-11-25T22:59:46.785Z,9.10
2022-11-25T23:02:28.426Z,9.10
2022-11-25T23:04:58.169Z,9.10
2022-11-25T23:07:25.591Z,9.10
2022-11-25T23:09:52.748Z,9.10
2022-11-25T23:12:19.867Z,9.20
2022-11-25T23:14:46.724Z,9.10
2022-11-25T23:17:25.332Z,9.20
2022-11-25T23:19:53.187Z,9.20
2022-11-25T23:22:20.345Z,9.20
2022-11-25T23:24:48.989Z,9.20
2022-11-25T23:27:16.367Z,9.20
2022-11-25T23:29:45.558Z,9.20
2022-11-25T23:32:19.718Z,9.20
2022-11-25T23:34:50.020Z,9.20
2022-11-25T23:37:16.907Z,9.20
2022-11-25T23:39:50.641Z,9.20
2022-11-25T23:42:19.462Z,9.20
2022-11-25T23:44:46.772Z,9.20
2022-11-25T23:47:18.798Z,9.10
2022-11-25T23:49:50.309Z,9.10
2022-11-25T23:52:23.067Z,9.10
2022-11-25T23:54:51.480Z,9.10
2022-11-25T23:57:23.140Z,9.10
2022-11-25T23:59:51.495Z,9.10
